sensor_id;sensor_type;location;lat;lon;timestamp;P1;durP1;ratioP1;P2;durP2;ratioP2
40322;SDS011;26030;51.164;17.100;2022-12-18T00:00:29;21.70;;;10.20;;
40322;SDS011;26030;51.164;17.100;2022-12-18T00:05:59;20.80;;;10.00;;
40322;SDS011;26030;51.164;17.100;2022-12-18T00:11:07;23.50;;;9.30;;
40322;SDS011;26030;51.164;17.100;2022-12-18T00:16:17;19.10;;;9.90;;
40322;SDS011;26030;51.164;17.100;2022-12-18T00:21:37;18.40;;;9.90;;
40322;SDS011;26030;51.164;17.100;2022-12-18T00:26:53;17.50;;;9.60;;
40322;SDS011;26030;51.164;17.100;2022-12-18T00:31:57;18.10;;;9.50;;
40322;SDS011;26030;51.164;17.100;2022-12-18T00:37:06;15.80;;;9.30;;
40322;SDS011;26030;51.164;17.100;2022-12-18T00:42:14;18.80;;;9.70;;
40322;SDS011;26030;51.164;17.100;2022-12-18T00:47:49;17.40;;;10.00;;
40322;SDS011;26030;51.164;17.100;2022-12-18T00:52:54;16.20;;;9.70;;
40322;SDS011;26030;51.164;17.100;2022-12-18T00:58:01;15.30;;;9.10;;
40322;SDS011;26030;51.164;17.100;2022-12-18T01:03:17;15.10;;;9.10;;
40322;SDS011;26030;51.164;17.100;2022-12-18T01:08:26;14.30;;;8.60;;
40322;SDS011;26030;51.164;17.100;2022-12-18T01:13:31;14.80;;;9.10;;
40322;SDS011;26030;51.164;17.100;2022-12-18T01:18:40;15.00;;;9.00;;
40322;SDS011;26030;51.164;17.100;2022-12-18T01:23:45;17.10;;;10.00;;
40322;SDS011;26030;51.164;17.100;2022-12-18T01:28:49;14.30;;;8.90;;
40322;SDS011;26030;51.164;17.100;2022-12-18T01:33:54;13.10;;;8.40;;
40322;SDS011;26030;51.164;17.100;2022-12-18T01:39:15;14.70;;;9.40;;
40322;SDS011;26030;51.164;17.100;2022-12-18T01:50:28;14.40;;;8.40;;
40322;SDS011;26030;51.164;17.100;2022-12-18T01:55:40;14.50;;;8.80;;
40322;SDS011;26030;51.164;17.100;2022-12-18T02:00:46;15.70;;;8.80;;
40322;SDS011;26030;51.164;17.100;2022-12-18T02:26:59;12.10;;;7.50;;
40322;SDS011;26030;51.164;17.100;2022-12-18T02:32:09;13.20;;;8.60;;
40322;SDS011;26030;51.164;17.100;2022-12-18T02:37:17;12.50;;;8.00;;
40322;SDS011;26030;51.164;17.100;2022-12-18T02:42:24;11.90;;;7.60;;
40322;SDS011;26030;51.164;17.100;2022-12-18T02:47:32;13.50;;;8.20;;
40322;SDS011;26030;51.164;17.100;2022-12-18T02:58:29;12.70;;;8.60;;
40322;SDS011;26030;51.164;17.100;2022-12-18T03:03:40;11.50;;;8.00;;
40322;SDS011;26030;51.164;17.100;2022-12-18T03:08:49;12.70;;;8.20;;
40322;SDS011;26030;51.164;17.100;2022-12-18T03:13:57;12.70;;;8.30;;
40322;SDS011;26030;51.164;17.100;2022-12-18T03:19:06;14.00;;;8.00;;
40322;SDS011;26030;51.164;17.100;2022-12-18T03:24:12;13.00;;;8.10;;
40322;SDS011;26030;51.164;17.100;2022-12-18T03:29:37;12.30;;;8.20;;
40322;SDS011;26030;51.164;17.100;2022-12-18T03:34:42;11.50;;;7.40;;
40322;SDS011;26030;51.164;17.100;2022-12-18T03:39:48;15.70;;;8.40;;
40322;SDS011;26030;51.164;17.100;2022-12-18T03:50:20;14.60;;;8.10;;
40322;SDS011;26030;51.164;17.100;2022-12-18T03:55:28;11.70;;;7.30;;
40322;SDS011;26030;51.164;17.100;2022-12-18T04:00:36;13.00;;;7.80;;
40322;SDS011;26030;51.164;17.100;2022-12-18T04:05:43;10.60;;;7.30;;
40322;SDS011;26030;51.164;17.100;2022-12-18T04:10:50;11.00;;;7.70;;
40322;SDS011;26030;51.164;17.100;2022-12-18T04:15:54;10.70;;;6.90;;
40322;SDS011;26030;51.164;17.100;2022-12-18T04:20:58;10.90;;;6.30;;
40322;SDS011;26030;51.164;17.100;2022-12-18T04:26:03;10.80;;;7.10;;
40322;SDS011;26030;51.164;17.100;2022-12-18T04:31:26;11.20;;;7.00;;
40322;SDS011;26030;51.164;17.100;2022-12-18T04:36:31;9.80;;;6.30;;
40322;SDS011;26030;51.164;17.100;2022-12-18T04:41:35;9.20;;;6.50;;
40322;SDS011;26030;51.164;17.100;2022-12-18T04:46:39;11.70;;;6.70;;
40322;SDS011;26030;51.164;17.100;2022-12-18T04:51:43;9.40;;;6.50;;
40322;SDS011;26030;51.164;17.100;2022-12-18T04:56:47;10.60;;;6.80;;
40322;SDS011;26030;51.164;17.100;2022-12-18T05:01:51;9.90;;;6.90;;
40322;SDS011;26030;51.164;17.100;2022-12-18T05:06:56;11.70;;;7.20;;
40322;SDS011;26030;51.164;17.100;2022-12-18T05:11:59;11.00;;;6.50;;
40322;SDS011;26030;51.164;17.100;2022-12-18T05:17:03;9.80;;;6.80;;
40322;SDS011;26030;51.164;17.100;2022-12-18T05:22:07;10.40;;;7.20;;
40322;SDS011;26030;51.164;17.100;2022-12-18T05:27:12;10.60;;;6.80;;
40322;SDS011;26030;51.164;17.100;2022-12-18T05:32:15;10.90;;;7.20;;
40322;SDS011;26030;51.164;17.100;2022-12-18T05:37:19;10.00;;;6.10;;
40322;SDS011;26030;51.164;17.100;2022-12-18T05:42:24;10.50;;;6.90;;
40322;SDS011;26030;51.164;17.100;2022-12-18T05:47:27;9.10;;;6.20;;
40322;SDS011;26030;51.164;17.100;2022-12-18T05:52:32;9.40;;;6.80;;
40322;SDS011;26030;51.164;17.100;2022-12-18T05:57:36;11.10;;;6.70;;
40322;SDS011;26030;51.164;17.100;2022-12-18T06:02:39;10.20;;;6.30;;
40322;SDS011;26030;51.164;17.100;2022-12-18T06:07:43;10.20;;;6.40;;
40322;SDS011;26030;51.164;17.100;2022-12-18T06:12:47;9.00;;;6.10;;
40322;SDS011;26030;51.164;17.100;2022-12-18T06:17:51;10.10;;;6.50;;
40322;SDS011;26030;51.164;17.100;2022-12-18T06:22:55;11.90;;;5.70;;
40322;SDS011;26030;51.164;17.100;2022-12-18T06:27:59;9.50;;;6.50;;
40322;SDS011;26030;51.164;17.100;2022-12-18T06:33:02;9.10;;;6.30;;
40322;SDS011;26030;51.164;17.100;2022-12-18T06:38:07;9.40;;;6.70;;
40322;SDS011;26030;51.164;17.100;2022-12-18T06:43:11;10.50;;;6.40;;
40322;SDS011;26030;51.164;17.100;2022-12-18T06:48:14;8.80;;;6.00;;
40322;SDS011;26030;51.164;17.100;2022-12-18T06:53:18;9.70;;;6.90;;
40322;SDS011;26030;51.164;17.100;2022-12-18T06:58:22;9.10;;;6.70;;
40322;SDS011;26030;51.164;17.100;2022-12-18T07:03:26;8.90;;;6.20;;
40322;SDS011;26030;51.164;17.100;2022-12-18T07:08:31;9.40;;;6.50;;
40322;SDS011;26030;51.164;17.100;2022-12-18T07:13:35;8.60;;;6.40;;
40322;SDS011;26030;51.164;17.100;2022-12-18T07:18:46;8.60;;;6.30;;
40322;SDS011;26030;51.164;17.100;2022-12-18T07:23:56;9.70;;;6.60;;
40322;SDS011;26030;51.164;17.100;2022-12-18T07:29:09;9.80;;;6.30;;
40322;SDS011;26030;51.164;17.100;2022-12-18T07:34:18;10.60;;;6.60;;
40322;SDS011;26030;51.164;17.100;2022-12-18T07:39:30;11.20;;;7.20;;
40322;SDS011;26030;51.164;17.100;2022-12-18T07:44:38;9.70;;;6.40;;
40322;SDS011;26030;51.164;17.100;2022-12-18T07:49:51;9.20;;;6.20;;
40322;SDS011;26030;51.164;17.100;2022-12-18T07:55:41;7.90;;;5.80;;
40322;SDS011;26030;51.164;17.100;2022-12-18T08:01:23;8.70;;;5.70;;
40322;SDS011;26030;51.164;17.100;2022-12-18T08:06:56;12.80;;;6.30;;
40322;SDS011;26030;51.164;17.100;2022-12-18T08:12:21;8.40;;;6.00;;
40322;SDS011;26030;51.164;17.100;2022-12-18T08:17:29;8.70;;;6.20;;
40322;SDS011;26030;51.164;17.100;2022-12-18T08:22:39;10.30;;;6.80;;
40322;SDS011;26030;51.164;17.100;2022-12-18T08:28:04;11.10;;;6.80;;
40322;SDS011;26030;51.164;17.100;2022-12-18T08:33:14;9.50;;;6.40;;
40322;SDS011;26030;51.164;17.100;2022-12-18T08:38:25;9.20;;;6.60;;
40322;SDS011;26030;51.164;17.100;2022-12-18T08:43:29;9.30;;;6.60;;
40322;SDS011;26030;51.164;17.100;2022-12-18T08:48:53;11.80;;;6.40;;
40322;SDS011;26030;51.164;17.100;2022-12-18T08:53:58;9.70;;;6.60;;
40322;SDS011;26030;51.164;17.100;2022-12-18T08:59:08;9.40;;;6.90;;
40322;SDS011;26030;51.164;17.100;2022-12-18T09:04:25;9.60;;;7.20;;
40322;SDS011;26030;51.164;17.100;2022-12-18T09:09:29;11.30;;;6.60;;
40322;SDS011;26030;51.164;17.100;2022-12-18T09:14:35;9.10;;;6.20;;
40322;SDS011;26030;51.164;17.100;2022-12-18T09:19:43;9.00;;;6.10;;
40322;SDS011;26030;51.164;17.100;2022-12-18T09:24:51;12.00;;;6.90;;
40322;SDS011;26030;51.164;17.100;2022-12-18T09:30:01;9.40;;;7.10;;
40322;SDS011;26030;51.164;17.100;2022-12-18T09:35:05;9.40;;;7.00;;
40322;SDS011;26030;51.164;17.100;2022-12-18T09:40:26;9.50;;;6.90;;
40322;SDS011;26030;51.164;17.100;2022-12-18T09:45:44;8.70;;;6.10;;
40322;SDS011;26030;51.164;17.100;2022-12-18T09:51:01;10.50;;;7.40;;
40322;SDS011;26030;51.164;17.100;2022-12-18T09:56:31;9.60;;;7.00;;
40322;SDS011;26030;51.164;17.100;2022-12-18T10:01:55;13.70;;;7.40;;
40322;SDS011;26030;51.164;17.100;2022-12-18T10:07:23;8.30;;;5.90;;
40322;SDS011;26030;51.164;17.100;2022-12-18T10:13:02;9.00;;;6.50;;
40322;SDS011;26030;51.164;17.100;2022-12-18T10:30:42;9.10;;;6.20;;
40322;SDS011;26030;51.164;17.100;2022-12-18T10:35:57;15.20;;;7.60;;
40322;SDS011;26030;51.164;17.100;2022-12-18T10:41:04;16.80;;;7.60;;
40322;SDS011;26030;51.164;17.100;2022-12-18T10:46:20;15.70;;;8.00;;
40322;SDS011;26030;51.164;17.100;2022-12-18T10:51:33;18.70;;;8.00;;
40322;SDS011;26030;51.164;17.100;2022-12-18T10:57:15;19.40;;;8.00;;
40322;SDS011;26030;51.164;17.100;2022-12-18T11:02:37;20.60;;;8.50;;
40322;SDS011;26030;51.164;17.100;2022-12-18T11:08:02;16.30;;;8.80;;
40322;SDS011;26030;51.164;17.100;2022-12-18T11:13:38;21.00;;;9.60;;
40322;SDS011;26030;51.164;17.100;2022-12-18T11:24:37;14.70;;;9.30;;
40322;SDS011;26030;51.164;17.100;2022-12-18T11:29:43;15.10;;;9.30;;
40322;SDS011;26030;51.164;17.100;2022-12-18T11:41:45;14.90;;;9.70;;
40322;SDS011;26030;51.164;17.100;2022-12-18T11:47:01;19.00;;;10.10;;
40322;SDS011;26030;51.164;17.100;2022-12-18T12:08:13;22.00;;;11.10;;
40322;SDS011;26030;51.164;17.100;2022-12-18T12:14:06;15.80;;;10.40;;
40322;SDS011;26030;51.164;17.100;2022-12-18T12:41:52;19.60;;;11.70;;
40322;SDS011;26030;51.164;17.100;2022-12-18T12:47:27;20.80;;;12.30;;
40322;SDS011;26030;51.164;17.100;2022-12-18T12:52:47;19.80;;;11.10;;
40322;SDS011;26030;51.164;17.100;2022-12-18T13:03:46;22.90;;;12.90;;
40322;SDS011;26030;51.164;17.100;2022-12-18T13:09:00;24.40;;;13.20;;
40322;SDS011;26030;51.164;17.100;2022-12-18T13:14:20;21.10;;;11.50;;
40322;SDS011;26030;51.164;17.100;2022-12-18T13:19:26;22.10;;;12.80;;
40322;SDS011;26030;51.164;17.100;2022-12-18T13:24:37;21.60;;;11.80;;
40322;SDS011;26030;51.164;17.100;2022-12-18T13:29:44;30.20;;;12.20;;
40322;SDS011;26030;51.164;17.100;2022-12-18T13:40:54;25.00;;;12.20;;
40322;SDS011;26030;51.164;17.100;2022-12-18T13:57:37;21.80;;;12.30;;
40322;SDS011;26030;51.164;17.100;2022-12-18T14:02:51;23.10;;;11.90;;
40322;SDS011;26030;51.164;17.100;2022-12-18T14:08:08;20.30;;;10.80;;
40322;SDS011;26030;51.164;17.100;2022-12-18T14:13:41;22.00;;;10.50;;
40322;SDS011;26030;51.164;17.100;2022-12-18T14:19:16;27.80;;;10.80;;
40322;SDS011;26030;51.164;17.100;2022-12-18T14:24:42;22.10;;;10.30;;
40322;SDS011;26030;51.164;17.100;2022-12-18T14:35:13;25.20;;;10.70;;
40322;SDS011;26030;51.164;17.100;2022-12-18T14:40:41;22.50;;;10.60;;
40322;SDS011;26030;51.164;17.100;2022-12-18T14:45:56;24.10;;;10.70;;
40322;SDS011;26030;51.164;17.100;2022-12-18T14:51:18;17.30;;;11.10;;
40322;SDS011;26030;51.164;17.100;2022-12-18T14:57:20;17.50;;;10.80;;
40322;SDS011;26030;51.164;17.100;2022-12-18T15:07:46;16.70;;;10.00;;
40322;SDS011;26030;51.164;17.100;2022-12-18T15:18:04;21.20;;;10.30;;
40322;SDS011;26030;51.164;17.100;2022-12-18T15:28:51;19.10;;;11.00;;
40322;SDS011;26030;51.164;17.100;2022-12-18T15:34:13;17.30;;;10.60;;
40322;SDS011;26030;51.164;17.100;2022-12-18T15:39:21;17.30;;;10.60;;
40322;SDS011;26030;51.164;17.100;2022-12-18T15:44:36;17.10;;;11.30;;
40322;SDS011;26030;51.164;17.100;2022-12-18T15:49:46;20.40;;;11.20;;
40322;SDS011;26030;51.164;17.100;2022-12-18T15:55:12;18.00;;;9.60;;
40322;SDS011;26030;51.164;17.100;2022-12-18T16:00:39;17.70;;;11.00;;
40322;SDS011;26030;51.164;17.100;2022-12-18T16:05:54;19.80;;;9.70;;
40322;SDS011;26030;51.164;17.100;2022-12-18T16:11:02;18.70;;;10.70;;
40322;SDS011;26030;51.164;17.100;2022-12-18T16:16:12;16.70;;;10.60;;
40322;SDS011;26030;51.164;17.100;2022-12-18T16:21:15;20.70;;;10.60;;
40322;SDS011;26030;51.164;17.100;2022-12-18T16:26:23;16.40;;;10.90;;
40322;SDS011;26030;51.164;17.100;2022-12-18T16:31:26;19.30;;;11.40;;
40322;SDS011;26030;51.164;17.100;2022-12-18T16:36:30;16.70;;;11.60;;
40322;SDS011;26030;51.164;17.100;2022-12-18T16:41:34;21.00;;;10.80;;
40322;SDS011;26030;51.164;17.100;2022-12-18T16:46:42;16.30;;;10.80;;
40322;SDS011;26030;51.164;17.100;2022-12-18T16:51:53;24.10;;;10.30;;
40322;SDS011;26030;51.164;17.100;2022-12-18T16:56:57;20.10;;;12.60;;
40322;SDS011;26030;51.164;17.100;2022-12-18T17:02:01;19.10;;;11.10;;
40322;SDS011;26030;51.164;17.100;2022-12-18T17:07:06;17.30;;;9.60;;
40322;SDS011;26030;51.164;17.100;2022-12-18T17:12:12;18.60;;;11.10;;
40322;SDS011;26030;51.164;17.100;2022-12-18T17:17:16;20.50;;;11.50;;
40322;SDS011;26030;51.164;17.100;2022-12-18T17:22:25;19.30;;;12.30;;
40322;SDS011;26030;51.164;17.100;2022-12-18T17:27:29;19.00;;;11.70;;
40322;SDS011;26030;51.164;17.100;2022-12-18T17:32:32;20.60;;;10.90;;
40322;SDS011;26030;51.164;17.100;2022-12-18T17:37:36;23.20;;;11.70;;
40322;SDS011;26030;51.164;17.100;2022-12-18T17:42:40;18.60;;;11.70;;
40322;SDS011;26030;51.164;17.100;2022-12-18T17:47:47;19.90;;;12.20;;
40322;SDS011;26030;51.164;17.100;2022-12-18T17:52:55;21.90;;;13.10;;
40322;SDS011;26030;51.164;17.100;2022-12-18T17:58:01;18.60;;;13.10;;
40322;SDS011;26030;51.164;17.100;2022-12-18T18:03:07;19.90;;;13.00;;
40322;SDS011;26030;51.164;17.100;2022-12-18T18:08:12;23.20;;;13.70;;
40322;SDS011;26030;51.164;17.100;2022-12-18T18:13:24;21.50;;;13.70;;
40322;SDS011;26030;51.164;17.100;2022-12-18T18:18:49;21.30;;;13.60;;
40322;SDS011;26030;51.164;17.100;2022-12-18T18:23:53;21.20;;;14.00;;
40322;SDS011;26030;51.164;17.100;2022-12-18T18:29:05;20.20;;;12.70;;
40322;SDS011;26030;51.164;17.100;2022-12-18T18:34:14;21.70;;;15.30;;
40322;SDS011;26030;51.164;17.100;2022-12-18T18:39:19;20.70;;;14.80;;
40322;SDS011;26030;51.164;17.100;2022-12-18T18:44:23;25.00;;;14.80;;
40322;SDS011;26030;51.164;17.100;2022-12-18T18:49:30;21.20;;;14.30;;
40322;SDS011;26030;51.164;17.100;2022-12-18T18:54:34;22.90;;;14.30;;
40322;SDS011;26030;51.164;17.100;2022-12-18T18:59:39;54.00;;;38.50;;
40322;SDS011;26030;51.164;17.100;2022-12-18T19:04:48;49.10;;;36.10;;
40322;SDS011;26030;51.164;17.100;2022-12-18T19:09:52;49.80;;;34.10;;
40322;SDS011;26030;51.164;17.100;2022-12-18T19:14:56;42.50;;;33.20;;
40322;SDS011;26030;51.164;17.100;2022-12-18T19:20:08;45.40;;;32.00;;
40322;SDS011;26030;51.164;17.100;2022-12-18T19:25:16;43.70;;;29.40;;
40322;SDS011;26030;51.164;17.100;2022-12-18T19:30:29;43.20;;;28.90;;
40322;SDS011;26030;51.164;17.100;2022-12-18T19:41:21;44.50;;;28.50;;
40322;SDS011;26030;51.164;17.100;2022-12-18T19:46:50;40.50;;;27.40;;
40322;SDS011;26030;51.164;17.100;2022-12-18T19:52:06;46.60;;;25.30;;
40322;SDS011;26030;51.164;17.100;2022-12-18T19:57:28;43.30;;;26.90;;
40322;SDS011;26030;51.164;17.100;2022-12-18T20:02:36;48.90;;;25.20;;
40322;SDS011;26030;51.164;17.100;2022-12-18T20:07:59;43.60;;;26.20;;
40322;SDS011;26030;51.164;17.100;2022-12-18T20:13:18;49.50;;;25.00;;
40322;SDS011;26030;51.164;17.100;2022-12-18T20:18:33;38.20;;;26.20;;
40322;SDS011;26030;51.164;17.100;2022-12-18T20:23:38;38.10;;;24.90;;
40322;SDS011;26030;51.164;17.100;2022-12-18T20:28:56;44.10;;;25.10;;
40322;SDS011;26030;51.164;17.100;2022-12-18T20:34:13;40.70;;;24.10;;
40322;SDS011;26030;51.164;17.100;2022-12-18T20:39:44;37.60;;;23.90;;
40322;SDS011;26030;51.164;17.100;2022-12-18T20:45:00;34.50;;;22.20;;
40322;SDS011;26030;51.164;17.100;2022-12-18T20:50:09;40.40;;;25.50;;
40322;SDS011;26030;51.164;17.100;2022-12-18T20:55:16;39.70;;;19.50;;
40322;SDS011;26030;51.164;17.100;2022-12-18T21:00:32;35.00;;;19.10;;
40322;SDS011;26030;51.164;17.100;2022-12-18T21:06:11;36.70;;;23.00;;
40322;SDS011;26030;51.164;17.100;2022-12-18T21:11:45;44.10;;;21.50;;
40322;SDS011;26030;51.164;17.100;2022-12-18T21:17:36;33.30;;;17.60;;
40322;SDS011;26030;51.164;17.100;2022-12-18T21:23:10;30.50;;;18.30;;
40322;SDS011;26030;51.164;17.100;2022-12-18T21:28:45;27.50;;;17.70;;
40322;SDS011;26030;51.164;17.100;2022-12-18T21:39:10;26.80;;;17.90;;
40322;SDS011;26030;51.164;17.100;2022-12-18T21:44:17;22.90;;;13.90;;
40322;SDS011;26030;51.164;17.100;2022-12-18T21:49:21;25.60;;;16.50;;
40322;SDS011;26030;51.164;17.100;2022-12-18T21:54:28;27.20;;;17.60;;
40322;SDS011;26030;51.164;17.100;2022-12-18T21:59:46;32.10;;;18.10;;
40322;SDS011;26030;51.164;17.100;2022-12-18T22:04:55;27.70;;;17.30;;
40322;SDS011;26030;51.164;17.100;2022-12-18T22:09:59;26.90;;;17.20;;
40322;SDS011;26030;51.164;17.100;2022-12-18T22:15:07;22.50;;;14.70;;
40322;SDS011;26030;51.164;17.100;2022-12-18T22:20:11;23.10;;;14.20;;
40322;SDS011;26030;51.164;17.100;2022-12-18T22:25:18;23.40;;;14.50;;
40322;SDS011;26030;51.164;17.100;2022-12-18T22:30:23;21.90;;;13.90;;
40322;SDS011;26030;51.164;17.100;2022-12-18T22:35:27;24.00;;;15.30;;
40322;SDS011;26030;51.164;17.100;2022-12-18T22:40:42;21.30;;;15.00;;
40322;SDS011;26030;51.164;17.100;2022-12-18T22:45:46;22.80;;;14.70;;
40322;SDS011;26030;51.164;17.100;2022-12-18T22:50:52;24.10;;;15.90;;
40322;SDS011;26030;51.164;17.100;2022-12-18T22:56:04;22.50;;;14.50;;
40322;SDS011;26030;51.164;17.100;2022-12-18T23:01:18;21.80;;;14.50;;
40322;SDS011;26030;51.164;17.100;2022-12-18T23:06:27;24.10;;;13.40;;
40322;SDS011;26030;51.164;17.100;2022-12-18T23:11:31;27.20;;;15.50;;
40322;SDS011;26030;51.164;17.100;2022-12-18T23:16:35;21.40;;;13.60;;
40322;SDS011;26030;51.164;17.100;2022-12-18T23:21:49;21.90;;;14.30;;
40322;SDS011;26030;51.164;17.100;2022-12-18T23:26:53;24.70;;;14.40;;
40322;SDS011;26030;51.164;17.100;2022-12-18T23:31:57;25.90;;;14.00;;
40322;SDS011;26030;51.164;17.100;2022-12-18T23:37:01;21.90;;;14.00;;
40322;SDS011;26030;51.164;17.100;2022-12-18T23:42:06;24.00;;;15.00;;
40322;SDS011;26030;51.164;17.100;2022-12-18T23:47:09;24.30;;;14.30;;
40322;SDS011;26030;51.164;17.100;2022-12-18T23:52:13;22.50;;;14.70;;
40322;SDS011;26030;51.164;17.100;2022-12-18T23:57:18;20.80;;;13.30;;
